Time;durP1;ratioP1;P1;durP2;ratioP2;P2;SDS_P1;SDS_P2;PMS_P1;PMS_P2;Temp;Humidity;BMP_temperature;BMP_pressure;BME280_temperature;BME280_humidity;BME280_pressure;Samples;Min_cycle;Max_cycle;Signal;HPM_P1;HPM_P2
2023/02/03 00:05:37;;;;;;;5.55;1.50;;;;;;;3.29;68.02;98489.16;10545335;28;20061;-78
2023/02/03 00:10:58;;;;;;;6.03;1.10;;;;;;;3.32;67.59;98477.03;10555127;28;20043;-78
2023/02/03 00:16:19;;;;;;;5.70;1.33;;;;;;;3.34;67.57;98475.25;10541208;28;20050;-79
2023/02/03 00:21:40;;;;;;;9.05;1.58;;;;;;;3.37;68.01;98479.69;10540865;28;20040;-78
2023/02/03 00:27:01;;;;;;;4.10;1.50;;;;;;;3.38;68.39;98481.19;10554425;28;20050;-78
2023/02/03 00:32:22;;;;;;;4.32;1.38;;;;;;;3.39;68.06;98459.88;10541277;28;20036;-78
2023/02/03 00:37:43;;;;;;;4.85;1.70;;;;;;;3.39;68.27;98476.44;10554984;28;20050;-78
2023/02/03 00:43:04;;;;;;;4.30;1.75;;;;;;;3.38;68.59;98472.94;10554082;28;20067;-78
2023/02/03 00:48:25;;;;;;;5.38;1.52;;;;;;;3.39;68.48;98490.22;10554092;28;20043;-78
2023/02/03 00:53:46;;;;;;;6.45;1.90;;;;;;;3.38;68.82;98475.69;10525615;28;20100;-78
2023/02/03 00:59:07;;;;;;;4.82;1.88;;;;;;;3.31;69.22;98476.31;10553387;28;20039;-78
2023/02/03 01:04:28;;;;;;;7.00;1.95;;;;;;;3.33;70.10;98481.28;10553398;28;20489;-78
2023/02/03 01:09:50;;;;;;;4.63;1.90;;;;;;;3.34;69.51;98474.50;10567068;28;20066;-78
2023/02/03 01:15:11;;;;;;;6.43;2.08;;;;;;;3.33;70.25;98461.97;10566946;28;20051;-78
2023/02/03 01:20:31;;;;;;;6.03;2.35;;;;;;;3.28;70.81;98458.06;10538599;28;20043;-78
2023/02/03 01:25:52;;;;;;;6.65;2.88;;;;;;;3.19;72.34;98452.94;10552591;28;20040;-78
2023/02/03 01:31:16;;;;;;;6.38;2.28;;;;;;;3.16;71.51;98454.72;10552717;28;20046;-79
2023/02/03 01:36:37;;;;;;;4.13;1.92;;;;;;;3.14;71.82;98440.72;10538740;28;20491;-81
2023/02/03 01:41:58;;;;;;;6.82;2.38;;;;;;;3.09;72.09;98435.31;10538637;28;20046;-80
2023/02/03 01:47:54;;;;;;;5.63;2.28;;;;;;;3.01;72.62;98418.63;10552024;28;20035;-81
2023/02/03 01:53:15;;;;;;;9.32;2.92;;;;;;;2.99;73.59;98403.84;10444443;28;20068;-80
2023/02/03 01:58:38;;;;;;;5.95;2.28;;;;;;;2.98;73.49;98394.09;10552270;28;20470;-80
2023/02/03 02:04:00;;;;;;;7.75;3.28;;;;;;;2.95;73.32;98368.31;10552578;28;20056;-80
2023/02/03 02:09:21;;;;;;;6.32;2.85;;;;;;;2.87;72.61;98353.66;10552240;28;20469;-80
2023/02/03 02:14:42;;;;;;;5.35;2.38;;;;;;;2.72;73.16;98342.41;10551364;28;20044;-79
2023/02/03 02:20:43;;;;;;;5.85;2.65;;;;;;;2.64;75.41;98325.75;10537591;28;20397;-79
2023/02/03 02:26:09;;;;;;;3.83;1.98;;;;;;;2.68;74.58;98314.41;10551346;28;20085;-79
2023/02/03 02:31:33;;;;;;;3.75;2.03;;;;;;;2.68;74.02;98300.63;10580477;28;20042;-79
2023/02/03 02:37:06;;;;;;;4.78;2.17;;;;;;;2.62;74.63;98306.25;10580472;28;20075;-79
2023/02/03 02:42:37;;;;;;;3.83;1.90;;;;;;;2.62;74.99;98300.00;10551925;28;20043;-79
2023/02/03 02:48:08;;;;;;;3.70;2.10;;;;;;;2.56;75.35;98269.75;10564962;28;20039;-79
2023/02/03 02:53:35;;;;;;;3.85;1.80;;;;;;;2.51;75.50;98267.81;10556222;28;20101;-78
2023/02/03 02:58:56;;;;;;;3.47;1.95;;;;;;;2.47;75.84;98250.88;10544157;28;20050;-79
2023/02/03 03:04:22;;;;;;;2.40;1.75;;;;;;;2.47;75.47;98240.59;10558491;28;20067;-79
2023/02/03 03:09:49;;;;;;;3.10;1.98;;;;;;;2.50;76.77;98239.53;10544363;28;20118;-79
2023/02/03 03:15:13;;;;;;;3.38;1.58;;;;;;;2.47;76.74;98228.81;10557779;28;20054;-79
2023/02/03 03:20:33;;;;;;;2.60;1.20;;;;;;;2.48;76.75;98233.81;10543739;28;20039;-78
2023/02/03 03:25:59;;;;;;;2.03;1.45;;;;;;;2.56;76.66;98226.41;10542936;28;20035;-79
2023/02/03 03:31:20;;;;;;;1.85;1.27;;;;;;;2.52;77.80;98236.25;10543457;28;20036;-79
2023/02/03 03:36:48;;;;;;;1.67;0.98;;;;;;;2.58;77.23;98218.34;10571035;28;20071;-79
2023/02/03 03:42:31;;;;;;;2.53;1.20;;;;;;;2.63;77.30;98214.00;10556825;28;20131;-78
2023/02/03 03:47:57;;;;;;;2.30;0.70;;;;;;;2.62;77.93;98195.25;10569811;28;20089;-79
2023/02/03 03:53:18;;;;;;;1.75;0.85;;;;;;;2.69;78.21;98205.63;10542593;28;20040;-79
2023/02/03 03:58:39;;;;;;;1.58;0.60;;;;;;;2.71;78.76;98178.28;10542218;28;20043;-79
2023/02/03 04:04:01;;;;;;;2.72;0.50;;;;;;;2.77;78.38;98187.19;10541496;28;20655;-80
2023/02/03 04:09:23;;;;;;;0.93;0.60;;;;;;;2.83;78.31;98194.06;10553968;28;20046;-80
2023/02/03 04:14:44;;;;;;;1.73;0.60;;;;;;;2.85;78.25;98188.03;10566387;28;20047;-80
2023/02/03 04:20:05;;;;;;;1.23;0.60;;;;;;;2.90;78.74;98170.63;10555174;28;20412;-79
2023/02/03 04:25:26;;;;;;;2.00;1.02;;;;;;;2.91;78.86;98158.31;10552008;28;20042;-79
2023/02/03 04:30:47;;;;;;;0.90;0.50;;;;;;;2.92;79.69;98154.28;10555453;28;20469;-80
2023/02/03 04:36:08;;;;;;;1.30;0.60;;;;;;;2.87;79.87;98144.09;10553376;28;20074;-81
2023/02/03 04:41:29;;;;;;;1.85;0.68;;;;;;;2.85;81.34;98130.13;10554130;28;20039;-80
2023/02/03 04:46:50;;;;;;;1.10;0.65;;;;;;;2.90;80.46;98126.50;10553478;28;20123;-81
2023/02/03 04:52:11;;;;;;;1.27;0.70;;;;;;;2.95;81.22;98117.38;10546427;28;20043;-82
2023/02/03 04:57:32;;;;;;;2.17;0.93;;;;;;;2.95;81.35;98111.09;10562177;28;20040;-81
2023/02/03 05:02:53;;;;;;;0.95;0.57;;;;;;;3.00;81.21;98071.66;10551169;28;20058;-82
2023/02/03 05:08:15;;;;;;;1.88;0.50;;;;;;;3.01;81.48;98046.28;10581098;28;20043;-82
2023/02/03 05:13:35;;;;;;;1.38;0.47;;;;;;;3.06;81.96;98070.22;10516335;28;20044;-82
2023/02/03 05:18:56;;;;;;;2.95;0.68;;;;;;;3.14;82.10;98071.06;10563635;28;20040;-83
2023/02/03 05:24:18;;;;;;;2.78;0.70;;;;;;;3.22;82.51;98078.66;10534518;28;20050;-83
2023/02/03 05:29:39;;;;;;;3.08;0.77;;;;;;;3.30;83.17;98085.00;10534930;28;20044;-82
2023/02/03 05:35:00;;;;;;;2.65;1.05;;;;;;;3.36;82.41;98082.84;10562113;28;20044;-82
2023/02/03 05:46:01;;;;;;;1.30;0.40;;;;;;;3.41;82.87;98073.69;10574184;28;20043;-82
2023/02/03 05:51:22;;;;;;;1.33;0.40;;;;;;;3.43;83.54;98066.34;10552361;28;20036;-82
2023/02/03 05:56:43;;;;;;;1.30;0.50;;;;;;;3.46;84.18;98064.53;10511304;28;20551;-81
2023/02/03 06:02:04;;;;;;;2.00;0.50;;;;;;;3.49;84.37;98069.00;10526323;28;20056;-82
2023/02/03 06:07:25;;;;;;;1.25;0.52;;;;;;;3.52;84.65;98037.53;10536298;28;20074;-83
2023/02/03 06:12:46;;;;;;;1.80;0.90;;;;;;;3.56;85.66;98032.41;10524064;28;20078;-81
2023/02/03 06:18:09;;;;;;;0.95;0.50;;;;;;;3.61;84.91;98025.28;10516955;28;20512;-81
2023/02/03 06:23:30;;;;;;;2.08;0.60;;;;;;;3.68;85.50;98046.69;10533432;28;20138;-81
2023/02/03 06:28:51;;;;;;;0.90;0.50;;;;;;;3.72;85.21;98042.28;10554797;28;20035;-82
2023/02/03 06:34:12;;;;;;;2.03;0.50;;;;;;;3.82;85.27;98044.56;10540578;28;20040;-82
2023/02/03 06:39:33;;;;;;;1.95;0.93;;;;;;;3.86;85.94;98028.38;10541278;28;20036;-80
2023/02/03 06:44:54;;;;;;;1.88;0.77;;;;;;;3.89;85.57;98027.31;10558090;28;20181;-82
2023/02/03 06:50:15;;;;;;;2.70;0.73;;;;;;;3.91;85.96;98024.75;10545115;28;20044;-80
2023/02/03 06:55:37;;;;;;;2.65;1.05;;;;;;;3.95;86.08;98020.34;10558552;28;20193;-80
2023/02/03 07:00:58;;;;;;;2.33;0.88;;;;;;;4.01;86.29;98017.44;10541883;28;20040;-80
2023/02/03 07:06:19;;;;;;;1.85;0.90;;;;;;;4.09;86.38;98012.69;10519418;28;20059;-78
2023/02/03 07:11:39;;;;;;;2.38;0.98;;;;;;;4.16;86.97;98003.72;10500791;28;20040;-79
2023/02/03 07:17:01;;;;;;;2.35;1.52;;;;;;;4.21;86.20;98007.59;10502282;28;20493;-78
2023/02/03 07:22:21;;;;;;;2.25;1.10;;;;;;;4.31;86.44;97995.47;10504008;28;20044;-84
2023/02/03 07:27:42;;;;;;;2.53;1.00;;;;;;;4.36;86.79;98018.72;10520814;28;20086;-78
2023/02/03 07:33:03;;;;;;;1.95;1.02;;;;;;;4.38;86.51;98020.94;10515296;28;20040;-77
2023/02/03 07:38:25;;;;;;;3.03;1.20;;;;;;;4.44;86.54;97996.63;10487037;28;20044;-78
2023/02/03 07:43:46;;;;;;;3.55;1.30;;;;;;;4.49;86.41;98013.06;10514981;28;20090;-78
2023/02/03 07:49:07;;;;;;;3.30;1.10;;;;;;;4.52;86.74;98000.91;10515017;28;20074;-77
2023/02/03 07:54:28;;;;;;;5.05;1.48;;;;;;;4.59;86.61;97993.94;10508789;28;20048;-78
2023/02/03 07:59:49;;;;;;;2.78;1.13;;;;;;;4.65;86.33;98005.56;10500900;28;20040;-77
2023/02/03 08:05:10;;;;;;;3.47;1.38;;;;;;;4.75;86.47;97978.88;10536908;28;20521;-80
2023/02/03 08:10:32;;;;;;;3.97;1.15;;;;;;;4.85;86.26;97968.00;10525644;28;20400;-79
2023/02/03 08:15:53;;;;;;;2.60;0.90;;;;;;;4.89;86.26;97944.22;10556335;28;20405;-79
2023/02/03 08:21:13;;;;;;;2.45;1.27;;;;;;;4.95;86.28;97932.25;10556204;28;20043;-80
2023/02/03 08:26:35;;;;;;;1.67;0.70;;;;;;;5.07;85.99;97928.56;10542269;28;20063;-79
2023/02/03 08:31:57;;;;;;;3.28;0.90;;;;;;;5.22;85.79;97927.81;10555819;28;20051;-78
2023/02/03 08:37:20;;;;;;;1.40;0.70;;;;;;;5.40;85.82;97937.00;10555464;28;20047;-79
2023/02/03 08:42:41;;;;;;;2.58;1.17;;;;;;;5.45;85.11;97916.72;10525503;28;20048;-78
2023/02/03 08:48:02;;;;;;;4.57;0.80;;;;;;;5.42;84.86;97901.97;10497815;28;20048;-78
2023/02/03 08:53:23;;;;;;;3.05;1.33;;;;;;;5.39;84.86;97903.06;10498560;28;20044;-80
2023/02/03 08:58:44;;;;;;;1.33;0.70;;;;;;;5.42;85.17;97898.47;10498021;28;20047;-79
2023/02/03 09:04:07;;;;;;;1.45;0.80;;;;;;;5.40;85.17;97884.41;10501342;28;20044;-82
2023/02/03 09:09:28;;;;;;;1.48;0.80;;;;;;;5.40;85.17;97893.47;10502337;28;20036;-81
2023/02/03 09:14:49;;;;;;;3.00;1.02;;;;;;;5.45;84.84;97873.16;10502531;28;20470;-82
2023/02/03 09:20:13;;;;;;;2.03;0.80;;;;;;;5.50;84.60;97859.66;10530354;28;20047;-82
2023/02/03 09:25:35;;;;;;;3.90;0.90;;;;;;;5.58;84.45;97863.16;10517582;28;20474;-82
2023/02/03 09:31:00;;;;;;;1.90;0.60;;;;;;;5.62;84.26;97847.66;10501290;28;20048;-82
2023/02/03 09:36:21;;;;;;;2.55;1.02;;;;;;;5.67;84.21;97843.19;10499264;28;20040;-81
2023/02/03 09:42:00;;;;;;;1.80;0.60;;;;;;;5.66;83.84;97847.25;10500595;28;20059;-82
2023/02/03 09:47:27;;;;;;;2.60;0.90;;;;;;;5.65;84.26;97823.63;10531913;28;20044;-83
2023/02/03 09:52:48;;;;;;;1.88;0.50;;;;;;;5.63;84.08;97815.16;10506548;28;20073;-82
2023/02/03 09:58:15;;;;;;;1.50;0.60;;;;;;;5.70;84.00;97789.47;10508525;28;20048;-83
2023/02/03 10:03:42;;;;;;;1.30;0.50;;;;;;;5.66;84.02;97767.66;10529466;28;20064;-82
2023/02/03 10:09:33;;;;;;;2.47;0.50;;;;;;;5.78;83.69;97748.59;10557227;28;20486;-82
2023/02/03 10:15:20;;;;;;;2.80;0.90;;;;;;;5.90;83.34;97738.59;10514180;28;20440;-81
2023/02/03 10:20:44;;;;;;;1.63;0.70;;;;;;;6.10;83.25;97741.59;10532933;28;20524;-83
2023/02/03 10:26:07;;;;;;;1.25;0.43;;;;;;;6.24;82.31;97720.63;10539616;28;20051;-78
2023/02/03 10:31:34;;;;;;;1.33;0.50;;;;;;;6.37;81.46;97717.56;10531860;28;20044;-81
2023/02/03 10:37:25;;;;;;;2.05;0.50;;;;;;;6.59;81.05;97694.44;10532023;28;20062;-78
2023/02/03 10:48:29;;;;;;;1.88;0.60;;;;;;;6.86;79.92;97668.84;10516861;28;20122;-78
2023/02/03 10:53:53;;;;;;;1.30;0.40;;;;;;;6.79;78.89;97666.88;10503179;28;20042;-77
2023/02/03 10:59:24;;;;;;;;;;;;;;;6.78;78.92;97663.38;10517959;28;20448;-79
2023/02/03 11:04:45;;;;;;;1.45;0.45;;;;;;;6.77;77.91;97642.47;10535373;28;19926;-77
2023/02/03 11:10:28;;;;;;;0.70;0.30;;;;;;;6.80;77.01;97626.72;10510495;28;20036;-77
2023/02/03 11:16:00;;;;;;;0.68;0.30;;;;;;;6.97;76.49;97604.50;10549102;28;20051;-77
2023/02/03 11:21:28;;;;;;;0.77;0.30;;;;;;;6.99;75.89;97574.13;10527759;28;20474;-78
2023/02/03 11:26:54;;;;;;;1.20;0.30;;;;;;;6.88;75.90;97594.81;10546489;28;20039;-77
2023/02/03 11:32:20;;;;;;;1.42;0.40;;;;;;;6.81;75.73;97575.47;10557192;28;20046;-77
2023/02/03 11:37:42;;;;;;;1.92;0.57;;;;;;;6.79;75.31;97580.88;10556935;28;20063;-77
2023/02/03 11:43:08;;;;;;;0.95;0.40;;;;;;;6.92;75.13;97563.84;10542822;28;20401;-77
2023/02/03 11:48:57;;;;;;;1.42;0.47;;;;;;;6.95;74.37;97571.06;10543298;28;20508;-77
2023/02/03 11:54:25;;;;;;;0.60;0.30;;;;;;;6.90;74.57;97577.56;10545813;28;20525;-77
2023/02/03 12:00:12;;;;;;;0.85;0.40;;;;;;;6.97;74.21;97549.00;10543754;28;20039;-77
2023/02/03 12:05:39;;;;;;;2.05;0.22;;;;;;;6.92;73.53;97563.84;10555863;28;20079;-77
2023/02/03 12:11:23;;;;;;;0.50;0.20;;;;;;;6.84;73.66;97571.53;10569693;28;20044;-78
2023/02/03 12:17:08;;;;;;;0.60;0.20;;;;;;;6.76;73.26;97557.78;10556669;28;20062;-77
2023/02/03 12:22:43;;;;;;;2.05;0.60;;;;;;;6.66;73.86;97556.22;10563333;28;20042;-78
2023/02/03 12:28:08;;;;;;;1.40;0.43;;;;;;;6.66;73.95;97543.13;10552741;28;20482;-77
2023/02/03 12:33:43;;;;;;;1.35;0.40;;;;;;;6.71;73.90;97521.97;10552941;28;20109;-78
2023/02/03 12:39:16;;;;;;;2.08;0.50;;;;;;;6.65;74.52;97521.47;10540342;28;20409;-79
2023/02/03 12:44:46;;;;;;;0.63;0.32;;;;;;;6.60;75.42;97528.75;10540184;28;20110;-79
2023/02/03 12:50:26;;;;;;;0.63;0.20;;;;;;;6.56;75.52;97511.78;10552296;28;20042;-77
2023/02/03 12:55:55;;;;;;;0.60;0.20;;;;;;;6.53;76.41;97507.38;10498740;28;20375;-78
2023/02/03 13:01:25;;;;;;;0.65;0.30;;;;;;;6.62;76.11;97489.34;10534282;28;20032;-80
2023/02/03 13:06:56;;;;;;;1.95;0.30;;;;;;;6.70;76.55;97479.63;10520440;28;20055;-79
2023/02/03 13:12:28;;;;;;;1.63;0.30;;;;;;;6.83;76.10;97457.06;10524355;28;20044;-78
2023/02/03 13:17:58;;;;;;;1.20;0.28;;;;;;;7.03;75.77;97448.81;10526557;28;20043;-79
2023/02/03 13:23:19;;;;;;;2.10;0.50;;;;;;;7.15;75.37;97413.69;10525166;28;20066;-79
2023/02/03 13:29:06;;;;;;;0.88;0.38;;;;;;;7.14;75.18;97393.50;10503578;28;20441;-79
2023/02/03 13:35:05;;;;;;;3.60;0.30;;;;;;;7.22;75.31;97414.84;10521861;28;20089;-79
2023/02/03 13:40:55;;;;;;;1.08;0.20;;;;;;;7.30;75.09;97418.22;10536688;28;20059;-79
2023/02/03 13:46:25;;;;;;;0.47;0.20;;;;;;;7.18;74.72;97418.78;10522759;28;20040;-79
2023/02/03 13:51:45;;;;;;;0.93;0.35;;;;;;;7.03;74.87;97424.56;10521903;28;20036;-79
2023/02/03 13:57:21;;;;;;;2.67;0.20;;;;;;;6.94;75.33;97425.25;10509773;28;20522;-79
2023/02/03 14:02:51;;;;;;;2.22;0.30;;;;;;;6.89;75.07;97423.50;10510327;28;20047;-78
2023/02/03 14:08:24;;;;;;;0.73;0.20;;;;;;;6.88;75.36;97402.63;10495696;28;20040;-79
2023/02/03 14:13:45;;;;;;;1.88;0.30;;;;;;;6.85;75.39;97431.50;10522243;28;20044;-81
2023/02/03 14:19:32;;;;;;;0.93;0.30;;;;;;;6.95;75.37;97401.78;10492081;28;20044;-79
2023/02/03 14:24:53;;;;;;;0.82;0.30;;;;;;;6.95;75.43;97417.66;10487147;28;20464;-80
2023/02/03 14:30:17;;;;;;;1.05;0.30;;;;;;;6.90;75.95;97427.75;10468354;28;20036;-78
2023/02/03 14:35:39;;;;;;;0.70;0.30;;;;;;;6.86;76.43;97447.59;10468399;28;20052;-79
2023/02/03 14:41:01;;;;;;;0.38;0.17;;;;;;;6.80;76.79;97460.25;10467663;28;20094;-78
2023/02/03 14:46:41;;;;;;;1.38;0.20;;;;;;;6.71;77.97;97497.00;10483877;28;20478;-80
2023/02/03 14:52:17;;;;;;;1.90;0.28;;;;;;;6.53;78.35;97507.38;10505561;28;20051;-78
2023/02/03 14:57:42;;;;;;;1.40;0.20;;;;;;;6.43;78.47;97535.06;10488761;28;20071;-79
2023/02/03 15:03:08;;;;;;;0.98;0.30;;;;;;;6.34;78.60;97507.97;10491515;28;20044;-78
2023/02/03 15:08:32;;;;;;;1.15;0.20;;;;;;;6.24;78.65;97527.31;10545307;28;20786;-78
2023/02/03 15:13:53;;;;;;;;;;;;;;;6.14;79.33;97523.00;10530441;28;20097;-79
2023/02/03 15:19:19;;;;;;;1.95;0.17;;;;;;;6.03;79.88;97522.19;10530178;28;20393;-78
2023/02/03 15:24:40;;;;;;;0.40;0.17;;;;;;;5.96;80.20;97536.84;10500996;28;20077;-76
2023/02/03 15:30:17;;;;;;;1.75;0.40;;;;;;;5.91;80.32;97542.63;10515237;28;20398;-77
2023/02/03 15:35:38;;;;;;;0.98;0.30;;;;;;;5.78;80.08;97560.25;10515034;28;20401;-77
2023/02/03 15:40:59;;;;;;;1.23;0.40;;;;;;;5.79;80.26;97578.34;10528993;28;20040;-76
2023/02/03 15:46:26;;;;;;;1.20;0.30;;;;;;;5.84;80.91;97580.13;10515154;28;20473;-78
2023/02/03 15:51:49;;;;;;;1.38;0.35;;;;;;;5.89;81.05;97623.50;10528219;28;20496;-78
2023/02/03 15:57:24;;;;;;;2.65;0.50;;;;;;;5.93;81.67;97621.09;10500163;28;20462;-79
2023/02/03 16:02:45;;;;;;;2.58;0.50;;;;;;;5.80;81.15;97618.59;10514963;28;20040;-78
2023/02/03 16:08:35;;;;;;;5.03;0.68;;;;;;;5.73;80.47;97624.91;10514085;28;20047;-79
2023/02/03 16:13:58;;;;;;;3.30;0.88;;;;;;;5.64;80.26;97634.56;10501858;28;20398;-79
2023/02/03 16:19:20;;;;;;;4.63;0.70;;;;;;;5.57;80.46;97657.50;10527604;28;20509;-79
2023/02/03 16:24:45;;;;;;;1.27;0.20;;;;;;;5.43;80.54;97654.28;10499385;28;20044;-79
2023/02/03 16:53:03;;;;;;;3.30;0.50;;;;;;;5.22;81.99;97695.34;10560167;28;20046;-79
2023/02/03 16:58:24;;;;;;;2.45;0.52;;;;;;;5.26;82.03;97706.75;10540054;28;20485;-80
2023/02/03 17:03:45;;;;;;;2.65;0.60;;;;;;;5.30;81.85;97728.50;10554679;28;20064;-81
2023/02/03 17:09:06;;;;;;;2.45;0.70;;;;;;;5.25;81.88;97741.28;10552511;28;20481;-78
2023/02/03 17:14:27;;;;;;;3.95;1.00;;;;;;;5.29;81.71;97727.03;10553412;28;20477;-78
2023/02/03 17:19:49;;;;;;;3.13;0.63;;;;;;;5.25;82.22;97721.16;10539285;28;20043;-78
2023/02/03 17:25:10;;;;;;;6.53;1.65;;;;;;;5.25;82.51;97721.91;10538560;28;20324;-79
2023/02/03 17:30:33;;;;;;;6.95;0.90;;;;;;;5.30;81.96;97717.44;10552556;28;20048;-78
2023/02/03 17:35:58;;;;;;;;;;;;;;;5.32;82.06;97731.47;10553224;28;20035;-79
2023/02/03 17:41:20;;;;;;;5.75;1.05;;;;;;;5.39;81.96;97736.22;10581603;28;20361;-78
2023/02/03 17:46:58;;;;;;;4.25;1.23;;;;;;;5.39;81.75;97731.41;10543024;28;20063;-78
2023/02/03 17:52:36;;;;;;;4.15;1.15;;;;;;;5.42;81.90;97737.88;10542660;28;20078;-78
2023/02/03 17:58:15;;;;;;;5.88;0.95;;;;;;;5.38;81.83;97741.03;10544196;28;20046;-79
2023/02/03 18:03:35;;;;;;;5.70;1.02;;;;;;;5.38;81.81;97748.59;10554776;28;20122;-81
2023/02/03 18:09:01;;;;;;;4.32;1.10;;;;;;;5.44;81.19;97738.78;10552103;28;20059;-78
2023/02/03 18:14:22;;;;;;;7.85;1.20;;;;;;;5.51;80.71;97736.56;10541171;28;20040;-81
2023/02/03 18:19:42;;;;;;;5.20;1.40;;;;;;;5.58;79.17;97739.28;10552805;28;20409;-80
2023/02/03 18:25:08;;;;;;;7.95;1.15;;;;;;;5.64;77.55;97742.56;10548095;28;20047;-80
2023/02/03 18:30:29;;;;;;;8.25;0.85;;;;;;;5.64;78.14;97750.88;10546123;28;20074;-81
2023/02/03 18:35:51;;;;;;;6.30;1.05;;;;;;;5.67;78.36;97744.22;10560253;28;20052;-78
2023/02/03 18:41:15;;;;;;;5.50;0.90;;;;;;;5.72;76.71;97750.84;10543474;28;20497;-78
2023/02/03 18:46:36;;;;;;;5.70;0.97;;;;;;;5.78;76.00;97770.00;10572794;28;20441;-77
2023/02/03 18:51:57;;;;;;;5.25;1.20;;;;;;;5.78;75.16;97762.44;10558457;28;20089;-77
2023/02/03 18:57:18;;;;;;;6.30;1.20;;;;;;;5.80;75.58;97759.88;10558633;28;20067;-78
2023/02/03 19:02:39;;;;;;;5.45;1.20;;;;;;;5.82;74.43;97768.34;10544461;28;20489;-75
2023/02/03 19:08:00;;;;;;;7.40;1.60;;;;;;;5.87;74.71;97772.91;10544412;28;20043;-76
2023/02/03 19:13:21;;;;;;;7.82;1.13;;;;;;;5.86;72.75;97754.09;10557689;28;20047;-79
2023/02/03 19:18:45;;;;;;;6.70;1.00;;;;;;;5.87;71.81;97781.22;10572005;28;20159;-79
2023/02/03 19:24:06;;;;;;;;;;;;;;;5.89;70.37;97758.53;10558320;28;20059;-78
2023/02/03 19:29:27;;;;;;;6.65;0.95;;;;;;;5.86;72.18;97732.66;10572209;28;20334;-78
2023/02/03 19:34:47;;;;;;;7.68;1.42;;;;;;;5.86;70.56;97751.31;10558229;28;20047;-78
2023/02/03 19:40:08;;;;;;;8.13;0.95;;;;;;;5.86;71.18;97756.84;10557213;28;20070;-79
2023/02/03 19:45:29;;;;;;;9.48;1.30;;;;;;;5.85;68.09;97747.09;10556975;28;20040;-78
2023/02/03 19:50:50;;;;;;;5.65;0.80;;;;;;;5.84;70.25;97746.34;10556601;28;20070;-78
2023/02/03 19:56:11;;;;;;;7.85;1.00;;;;;;;5.78;67.05;97734.00;10542192;28;20048;-78
2023/02/03 20:01:32;;;;;;;10.93;1.85;;;;;;;5.71;66.91;97733.50;10542069;28;20043;-78
2023/02/03 20:06:53;;;;;;;6.15;0.90;;;;;;;5.57;67.21;97728.75;10513446;28;20048;-79
2023/02/03 20:12:13;;;;;;;5.03;1.00;;;;;;;5.42;66.48;97710.22;10513441;28;20040;-79
2023/02/03 20:17:34;;;;;;;6.82;1.25;;;;;;;5.35;65.64;97722.78;10513455;28;20047;-78
2023/02/03 20:22:55;;;;;;;7.75;1.27;;;;;;;5.32;66.05;97729.44;10513250;28;20040;-79
2023/02/03 20:28:16;;;;;;;9.15;1.30;;;;;;;5.34;66.00;97737.19;10540888;28;20371;-79
2023/02/03 20:33:37;;;;;;;7.80;1.25;;;;;;;5.46;65.62;97741.00;10512741;28;20044;-78
2023/02/03 20:38:58;;;;;;;5.38;0.98;;;;;;;5.56;65.69;97741.88;10498597;28;20047;-79
2023/02/03 20:44:18;;;;;;;5.30;0.77;;;;;;;5.64;65.23;97752.91;10525506;28;20044;-79
2023/02/03 20:49:40;;;;;;;4.78;0.80;;;;;;;5.69;65.81;97752.72;10512241;28;20401;-79
2023/02/03 20:55:00;;;;;;;6.75;0.80;;;;;;;5.72;65.80;97748.09;10498970;28;20040;-79
2023/02/03 21:00:24;;;;;;;7.28;1.50;;;;;;;5.74;65.32;97751.03;10512039;28;20443;-79
2023/02/03 21:05:45;;;;;;;3.90;0.63;;;;;;;5.80;64.67;97740.47;10536668;28;20047;-78
2023/02/03 21:11:13;;;;;;;5.78;1.17;;;;;;;5.84;64.37;97767.78;10553004;28;20043;-79
2023/02/03 21:16:35;;;;;;;6.63;1.15;;;;;;;5.82;64.63;97760.03;10567363;28;20047;-77
2023/02/03 21:21:56;;;;;;;5.95;1.20;;;;;;;5.85;63.96;97783.81;10539404;28;20046;-78
2023/02/03 21:27:31;;;;;;;5.35;0.73;;;;;;;5.82;62.56;97798.06;10553572;28;20035;-78
2023/02/03 21:32:52;;;;;;;4.47;0.75;;;;;;;5.81;62.58;97816.72;10553302;28;20044;-77
2023/02/03 21:38:30;;;;;;;5.45;0.80;;;;;;;5.87;62.89;97820.00;10523833;28;20035;-77
2023/02/03 21:43:55;;;;;;;7.65;0.82;;;;;;;5.88;62.44;97817.97;10542188;28;20105;-77
2023/02/03 21:49:17;;;;;;;5.47;1.10;;;;;;;5.90;62.28;97816.16;10565659;28;20050;-78
2023/02/03 21:54:40;;;;;;;5.22;0.70;;;;;;;5.90;62.67;97816.16;10553268;28;20047;-77
2023/02/03 22:00:01;;;;;;;5.25;0.60;;;;;;;5.90;62.16;97807.09;10552458;28;20047;-78
2023/02/03 22:05:33;;;;;;;2.50;0.43;;;;;;;5.91;62.36;97817.63;10555965;28;20066;-77
2023/02/03 22:10:59;;;;;;;3.15;0.45;;;;;;;5.88;62.42;97807.63;10552895;28;20044;-77
2023/02/03 22:16:20;;;;;;;4.47;0.50;;;;;;;5.85;61.87;97808.75;10536873;28;20044;-78
2023/02/03 22:21:42;;;;;;;4.55;0.60;;;;;;;5.84;61.96;97810.06;10567511;28;20048;-77
2023/02/03 22:27:12;;;;;;;4.32;0.80;;;;;;;5.87;61.60;97800.63;10581390;28;20039;-77
2023/02/03 22:32:33;;;;;;;5.00;0.70;;;;;;;5.86;61.67;97810.22;10553693;28;20043;-78
2023/02/03 22:37:54;;;;;;;4.15;0.50;;;;;;;5.87;61.37;97800.63;10550399;28;20369;-78
2023/02/03 22:43:15;;;;;;;4.00;0.60;;;;;;;5.83;61.81;97794.00;10529535;28;20036;-78
2023/02/03 22:48:36;;;;;;;2.97;0.40;;;;;;;5.85;61.87;97796.94;10526540;28;20063;-77
2023/02/03 22:53:57;;;;;;;1.20;0.20;;;;;;;5.86;61.63;97787.34;10542879;28;20404;-77
2023/02/03 22:59:18;;;;;;;1.83;0.30;;;;;;;5.82;61.74;97790.50;10526911;28;20090;-78
2023/02/03 23:04:38;;;;;;;4.90;0.50;;;;;;;5.82;61.94;97792.53;10537726;28;20052;-78
2023/02/03 23:09:59;;;;;;;3.13;0.30;;;;;;;5.78;61.96;97767.25;10556861;28;20485;-77
2023/02/03 23:15:20;;;;;;;1.95;0.30;;;;;;;5.75;61.83;97769.09;10539828;28;20046;-77
2023/02/03 23:20:41;;;;;;;1.42;0.22;;;;;;;5.72;61.97;97764.69;10537498;28;20046;-78
2023/02/03 23:26:02;;;;;;;1.45;0.20;;;;;;;5.70;62.31;97759.00;10550489;28;20044;-77
2023/02/03 23:31:23;;;;;;;1.30;0.20;;;;;;;5.50;62.09;97765.53;10543973;28;20036;-78
2023/02/03 23:36:44;;;;;;;1.70;0.20;;;;;;;5.29;62.97;97758.22;10520360;28;20436;-77
2023/02/03 23:42:05;;;;;;;2.53;0.35;;;;;;;5.18;62.97;97762.13;10530222;28;20040;-78
2023/02/03 23:47:26;;;;;;;1.48;0.20;;;;;;;5.12;63.10;97763.66;10518471;28;20043;-78
2023/02/03 23:52:47;;;;;;;1.38;0.22;;;;;;;5.07;63.50;97778.41;10519960;28;20050;-78
2023/02/03 23:58:08;;;;;;;1.30;0.20;;;;;;;4.90;64.11;97754.09;10519575;28;20552;-77
